Time;durP1;ratioP1;P1;durP2;ratioP2;P2;SDS_P1;SDS_P2;PMS_P1;PMS_P2;Temp;Humidity;BMP_temperature;BMP_pressure;BME280_temperature;BME280_humidity;BME280_pressure;Samples;Min_cycle;Max_cycle;Signal;HPM_P1;HPM_P2
2022/06/01 00:00:00;;;;;;;4.20;2.85;;;;;;;17.19;74.24;99833.91;5011645;28;20117;-62
2022/06/01 00:02:26;;;;;;;6.45;3.53;;;;;;;17.10;74.75;99840.69;5011658;28;20385;-62
2022/06/01 00:04:52;;;;;;;5.53;3.38;;;;;;;17.16;74.29;99839.47;5011723;28;20069;-62
2022/06/01 00:07:19;;;;;;;10.55;3.60;;;;;;;17.11;74.40;99844.25;5011592;28;20060;-62
2022/06/01 00:09:44;;;;;;;4.38;3.22;;;;;;;17.16;74.32;99847.53;5011569;28;20029;-62
2022/06/01 00:12:11;;;;;;;4.22;2.80;;;;;;;17.15;74.25;99851.16;5011160;28;20079;-62
2022/06/01 00:14:36;;;;;;;4.97;3.20;;;;;;;17.15;74.52;99851.16;5009600;28;20083;-62
2022/06/01 00:17:02;;;;;;;6.25;2.90;;;;;;;17.07;74.79;99840.03;5010130;28;20125;-62
2022/06/01 00:19:28;;;;;;;4.32;2.88;;;;;;;17.06;74.71;99846.38;5009970;28;20021;-62
2022/06/01 00:22:12;;;;;;;7.18;3.03;;;;;;;16.96;74.08;99839.81;5009880;28;20038;-62
2022/06/01 00:24:38;;;;;;;7.00;2.90;;;;;;;16.86;75.41;99838.66;5009828;28;20085;-62
2022/06/01 00:27:08;;;;;;;4.10;2.72;;;;;;;16.83;74.88;99838.84;5010011;28;20037;-62
2022/06/01 00:29:34;;;;;;;4.30;2.60;;;;;;;16.78;74.49;99840.94;5010887;28;20033;-62
2022/06/01 00:31:59;;;;;;;6.78;3.22;;;;;;;16.73;75.20;99845.72;5011165;28;20080;-62
2022/06/01 00:34:25;;;;;;;4.90;3.10;;;;;;;16.71;75.29;99843.16;5011132;28;20037;-62
2022/06/01 00:36:51;;;;;;;8.18;3.25;;;;;;;16.69;75.95;99852.22;5011224;28;20512;-62
2022/06/01 00:39:17;;;;;;;5.72;2.80;;;;;;;16.67;75.88;99843.44;5011262;28;20057;-62
2022/06/01 00:41:43;;;;;;;4.75;3.03;;;;;;;16.62;75.48;99845.53;5010496;28;20029;-62
2022/06/01 00:44:08;;;;;;;4.72;2.90;;;;;;;16.65;76.09;99845.34;5009459;28;20056;-62
2022/06/01 00:46:34;;;;;;;5.07;2.97;;;;;;;16.63;75.37;99841.88;5009119;28;20414;-62
2022/06/01 00:49:07;;;;;;;4.60;3.10;;;;;;;16.62;76.32;99845.53;5009184;28;20041;-62
2022/06/01 00:51:32;;;;;;;8.07;4.70;;;;;;;16.57;76.17;99848.47;5009229;28;20141;-63
2022/06/01 00:53:58;;;;;;;5.68;2.80;;;;;;;16.56;76.90;99845.88;5010547;28;20116;-63
2022/06/01 00:56:32;;;;;;;4.57;2.85;;;;;;;16.52;76.48;99839.81;5010814;28;20064;-63
2022/06/01 00:59:03;;;;;;;7.47;2.80;;;;;;;16.50;77.08;99840.88;5011292;28;20069;-63
2022/06/01 01:01:29;;;;;;;5.30;3.17;;;;;;;16.50;77.17;99835.50;5010785;28;20077;-63
2022/06/01 01:03:56;;;;;;;7.90;3.58;;;;;;;16.46;77.57;99840.19;5011400;28;20116;-63
2022/06/01 01:06:33;;;;;;;3.92;2.92;;;;;;;16.45;76.60;99837.56;5010725;28;20084;-62
2022/06/01 01:08:59;;;;;;;6.50;3.20;;;;;;;16.39;77.66;99843.31;5011015;28;20041;-62
2022/06/01 01:11:36;;;;;;;5.13;3.50;;;;;;;16.34;77.93;99834.66;5009479;28;20121;-62
2022/06/01 01:14:06;;;;;;;4.07;2.72;;;;;;;16.31;78.54;99840.22;5010856;28;20021;-62
2022/06/01 01:16:34;;;;;;;4.68;2.65;;;;;;;16.26;78.63;99834.25;5010731;28;20034;-62
2022/06/01 01:19:01;;;;;;;5.72;2.97;;;;;;;16.26;79.59;99826.19;5011243;28;20037;-62
2022/06/01 01:22:02;;;;;;;6.05;2.85;;;;;;;16.18;78.62;99833.78;5010047;28;20049;-62
2022/06/01 01:25:04;;;;;;;6.35;3.47;;;;;;;16.11;79.68;99841.34;5010168;28;20038;-62
2022/06/01 01:27:31;;;;;;;8.48;2.75;;;;;;;16.10;79.83;99833.38;5011301;28;20034;-62
2022/06/01 01:29:56;;;;;;;5.05;3.25;;;;;;;16.00;80.03;99834.84;5014585;28;20104;-62
2022/06/01 01:32:21;;;;;;;8.98;3.10;;;;;;;15.98;80.07;99842.16;5014461;28;20545;-62
2022/06/01 01:34:47;;;;;;;7.05;3.33;;;;;;;15.74;80.72;99813.09;5014304;28;20041;-62
2022/06/01 01:37:27;;;;;;;9.98;5.18;;;;;;;15.84;80.75;99842.94;5014395;28;20030;-62
2022/06/01 01:39:55;;;;;;;4.95;3.00;;;;;;;15.79;80.29;99832.47;5014475;28;20160;-62
2022/06/01 01:42:20;;;;;;;5.72;2.72;;;;;;;15.74;81.61;99839.03;5014311;28;20025;-62
2022/06/01 01:44:55;;;;;;;7.03;3.42;;;;;;;15.62;81.95;99840.59;5014174;28;20041;-62
2022/06/01 01:47:21;;;;;;;6.03;3.45;;;;;;;15.53;82.89;99825.00;5013396;28;20030;-62
2022/06/01 01:49:47;;;;;;;4.75;3.17;;;;;;;15.49;83.14;99834.19;5014342;28;20168;-62
2022/06/01 01:52:17;;;;;;;5.20;2.88;;;;;;;15.42;83.89;99834.63;5014275;28;20428;-62
2022/06/01 01:54:57;;;;;;;7.95;3.25;;;;;;;15.35;84.12;99835.88;5013989;28;20030;-62
2022/06/01 01:57:56;;;;;;;6.20;3.33;;;;;;;15.28;84.42;99831.78;5013665;28;20397;-63
2022/06/01 02:00:35;;;;;;;6.72;3.30;;;;;;;15.25;84.55;99835.50;5013953;28;20449;-62
2022/06/01 02:03:12;;;;;;;8.23;3.22;;;;;;;15.22;84.78;99837.47;5013781;28;20022;-62
2022/06/01 02:06:04;;;;;;;4.85;3.28;;;;;;;15.14;85.62;99835.19;5013873;28;20041;-62
2022/06/01 02:08:41;;;;;;;5.38;3.60;;;;;;;15.09;85.48;99839.94;5014107;28;20057;-62
2022/06/01 02:14:17;;;;;;;5.28;3.17;;;;;;;15.02;86.37;99840.38;5013687;28;20041;-62
2022/06/01 02:16:47;;;;;;;5.53;3.33;;;;;;;15.00;86.42;99835.09;5013440;28;20033;-62
2022/06/01 02:19:18;;;;;;;5.95;3.20;;;;;;;14.93;87.28;99836.34;5012881;28;20101;-62
2022/06/01 02:21:44;;;;;;;6.68;3.28;;;;;;;14.84;87.40;99844.88;5011852;28;20033;-62
2022/06/01 02:24:09;;;;;;;5.82;3.45;;;;;;;14.78;88.06;99837.16;5012006;28;20076;-62
2022/06/01 02:26:35;;;;;;;4.70;2.95;;;;;;;14.72;88.51;99841.97;5011873;28;20541;-63
2022/06/01 02:29:19;;;;;;;4.60;3.15;;;;;;;14.71;89.22;99837.56;5011865;28;20405;-62
2022/06/01 02:31:45;;;;;;;;;;;;;;;14.40;88.68;99801.69;5010783;28;20517;-62
2022/06/01 02:34:12;;;;;;;5.88;2.95;;;;;;;14.52;88.91;99832.28;5012436;28;19996;-62
2022/06/01 02:36:40;;;;;;;4.68;3.13;;;;;;;14.36;89.33;99831.34;5011369;28;20021;-62
2022/06/01 02:39:08;;;;;;;5.35;3.05;;;;;;;14.14;89.68;99833.34;5013285;28;20030;-62
2022/06/01 02:44:19;;;;;;;4.65;2.70;;;;;;;13.96;90.47;99840.47;5013469;28;20449;-62
2022/06/01 02:46:45;;;;;;;5.55;3.75;;;;;;;13.91;91.05;99838.94;5013041;28;20026;-62
2022/06/01 02:49:11;;;;;;;4.30;3.03;;;;;;;13.90;91.58;99842.56;5012663;28;20018;-62
2022/06/01 02:51:36;;;;;;;5.28;3.38;;;;;;;13.86;91.74;99832.97;5012822;28;20033;-62
2022/06/01 02:54:02;;;;;;;4.60;3.40;;;;;;;13.79;92.52;99837.75;5012904;28;20616;-62
2022/06/01 02:56:28;;;;;;;6.60;3.40;;;;;;;13.71;92.29;99831.91;5012676;28;20033;-62
2022/06/01 02:58:54;;;;;;;6.68;3.90;;;;;;;13.75;93.14;99843.31;5012741;28;20025;-62
2022/06/01 03:01:20;;;;;;;10.75;4.43;;;;;;;13.77;93.49;99836.09;5012951;28;20030;-62
2022/06/01 03:03:45;;;;;;;5.13;3.58;;;;;;;13.77;94.19;99847.63;5012800;28;20072;-62
2022/06/01 03:06:11;;;;;;;5.18;3.83;;;;;;;13.79;94.23;99850.25;5012467;28;20398;-62
2022/06/01 03:08:36;;;;;;;6.97;3.50;;;;;;;13.89;94.51;99846.16;5012352;28;20156;-62
2022/06/01 03:11:02;;;;;;;6.18;3.60;;;;;;;13.89;94.65;99848.84;5012807;28;20543;-62
2022/06/01 03:13:27;;;;;;;6.15;3.80;;;;;;;13.82;94.77;99842.94;5012487;28;20101;-62
2022/06/01 03:15:54;;;;;;;7.35;4.10;;;;;;;13.77;94.23;99841.44;5012237;28;20034;-62
2022/06/01 03:18:20;;;;;;;7.63;4.50;;;;;;;13.70;94.63;99840.88;5012181;28;20030;-62
2022/06/01 03:20:45;;;;;;;7.43;4.38;;;;;;;13.66;94.88;99839.28;5012425;28;20441;-62
2022/06/01 03:23:11;;;;;;;7.07;4.03;;;;;;;13.65;95.16;99840.22;5012172;28;20038;-62
2022/06/01 03:25:37;;;;;;;7.20;4.65;;;;;;;13.66;95.08;99844.63;5012105;28;20472;-62
2022/06/01 03:28:05;;;;;;;6.53;4.20;;;;;;;13.65;95.37;99847.38;5011980;28;20068;-62
2022/06/01 03:30:31;;;;;;;8.30;4.10;;;;;;;13.60;95.52;99844.03;5012287;28;20080;-62
2022/06/01 03:32:58;;;;;;;7.57;4.15;;;;;;;13.56;95.64;99853.16;5012210;28;20028;-62
2022/06/01 03:35:27;;;;;;;7.95;4.32;;;;;;;13.57;95.46;99850.41;5012085;28;20034;-62
2022/06/01 03:37:52;;;;;;;10.15;3.83;;;;;;;13.65;95.44;99850.91;5012159;28;20095;-62
2022/06/01 03:40:19;;;;;;;9.07;4.28;;;;;;;13.68;94.59;99853.44;5012154;28;20338;-62
2022/06/01 03:42:45;;;;;;;7.13;4.00;;;;;;;13.68;94.66;99853.44;5011915;28;20033;-62
2022/06/01 03:47:58;;;;;;;9.55;4.85;;;;;;;13.43;93.68;99862.66;5009452;28;20032;-62
2022/06/01 03:50:25;;;;;;;7.15;4.28;;;;;;;13.29;93.42;99860.66;5009588;28;20718;-62
2022/06/01 03:52:52;;;;;;;9.18;3.65;;;;;;;13.25;94.30;99861.72;5010421;28;20068;-62
2022/06/01 03:55:17;;;;;;;8.38;3.92;;;;;;;13.24;94.53;99855.50;5012303;28;20030;-63
2022/06/01 03:57:43;;;;;;;6.18;4.15;;;;;;;13.24;95.10;99858.16;4993481;28;20040;-62
2022/06/01 04:00:13;;;;;;;6.68;4.30;;;;;;;13.24;95.25;99857.31;5012175;28;20064;-63
2022/06/01 04:02:40;;;;;;;7.35;4.45;;;;;;;13.19;95.52;99844.16;5011301;28;20038;-62
2022/06/01 04:05:06;;;;;;;5.95;4.18;;;;;;;13.29;96.09;99860.66;5011766;28;20036;-62
2022/06/01 04:07:32;;;;;;;7.35;4.25;;;;;;;13.35;96.72;99854.13;5011384;28;20069;-62
2022/06/01 04:09:57;;;;;;;8.35;4.45;;;;;;;13.42;97.02;99860.94;5011702;28;20106;-62
2022/06/01 04:12:23;;;;;;;8.93;4.65;;;;;;;13.48;96.29;99857.97;5011719;28;20361;-62
2022/06/01 04:14:48;;;;;;;5.53;3.63;;;;;;;13.51;96.45;99861.38;5011717;28;20028;-62
2022/06/01 04:17:14;;;;;;;7.53;4.47;;;;;;;13.60;96.47;99876.13;5010982;28;20029;-62
2022/06/01 04:19:39;;;;;;;6.95;3.92;;;;;;;13.59;95.92;99869.88;5011588;28;20033;-62
2022/06/01 04:22:06;;;;;;;5.70;3.88;;;;;;;13.55;95.59;99867.44;5011297;28;20045;-62
2022/06/01 04:24:34;;;;;;;6.10;4.50;;;;;;;13.49;95.85;99879.31;5011263;28;20489;-62
2022/06/01 04:26:59;;;;;;;6.63;4.38;;;;;;;13.43;96.11;99879.56;5011114;28;20038;-62
2022/06/01 04:29:25;;;;;;;6.05;4.47;;;;;;;13.41;95.84;99883.25;5011255;28;20108;-62
2022/06/01 04:32:01;;;;;;;6.35;4.30;;;;;;;13.34;96.54;99880.00;5010767;28;20022;-62
2022/06/01 04:34:27;;;;;;;7.15;4.30;;;;;;;13.37;96.63;99876.31;5010086;28;20411;-62
2022/06/01 04:36:54;;;;;;;8.10;4.35;;;;;;;13.47;96.74;99872.28;5009495;28;20030;-62
2022/06/01 04:39:20;;;;;;;6.88;4.07;;;;;;;13.63;96.63;99878.63;5010065;28;20394;-62
2022/06/01 04:41:46;;;;;;;7.82;4.40;;;;;;;13.79;97.04;99872.50;5010690;28;20026;-62
2022/06/01 04:44:11;;;;;;;6.95;5.07;;;;;;;13.97;96.74;99884.13;5009979;28;20034;-62
2022/06/01 04:46:37;;;;;;;7.70;5.00;;;;;;;14.12;96.27;99886.03;5010100;28;20394;-62
2022/06/01 04:49:03;;;;;;;6.13;4.45;;;;;;;14.27;95.82;99879.97;5011065;28;20046;-62
2022/06/01 04:51:28;;;;;;;7.53;4.50;;;;;;;14.43;94.76;99875.59;5011089;28;20073;-62
2022/06/01 04:53:54;;;;;;;7.38;4.43;;;;;;;14.62;94.54;99871.03;5009786;28;20062;-62
2022/06/01 04:56:19;;;;;;;7.10;4.75;;;;;;;14.82;93.02;99873.56;5009131;28;20493;-62
2022/06/01 04:58:45;;;;;;;9.95;4.32;;;;;;;15.00;92.10;99885.97;5008506;28;20026;-62
2022/06/01 05:01:10;;;;;;;8.02;3.95;;;;;;;15.16;91.05;99876.19;5011674;28;20052;-62
2022/06/01 05:03:35;;;;;;;5.82;3.45;;;;;;;15.33;89.18;99872.59;5013061;28;20038;-62
2022/06/01 05:06:01;;;;;;;5.22;3.30;;;;;;;15.50;87.83;99859.19;5012944;28;20028;-62
2022/06/01 05:08:27;;;;;;;5.25;2.85;;;;;;;15.64;81.29;99859.28;5013651;28;20029;-62
2022/06/01 05:10:52;;;;;;;4.80;3.20;;;;;;;15.72;80.34;99862.38;5015389;28;20030;-62
2022/06/01 05:13:19;;;;;;;4.97;3.20;;;;;;;15.93;79.31;99863.84;5013717;28;20037;-62
2022/06/01 05:15:55;;;;;;;5.43;3.63;;;;;;;16.13;78.69;99876.16;5013269;28;20037;-62
2022/06/01 05:18:21;;;;;;;7.18;3.80;;;;;;;16.18;78.29;99866.00;5013430;28;20068;-62
2022/06/01 05:20:47;;;;;;;5.82;3.63;;;;;;;16.24;77.75;99862.97;5013422;28;20504;-62
2022/06/01 05:23:13;;;;;;;4.55;3.10;;;;;;;16.30;75.80;99868.84;5013151;28;20067;-62
2022/06/01 05:25:39;;;;;;;5.75;3.53;;;;;;;16.35;76.75;99865.91;5013121;28;20046;-62
2022/06/01 05:28:05;;;;;;;5.05;2.97;;;;;;;16.45;76.32;99869.78;5013939;28;20034;-62
2022/06/01 05:30:31;;;;;;;6.07;3.45;;;;;;;16.53;75.99;99863.03;5014737;28;20452;-62
2022/06/01 05:32:57;;;;;;;6.28;3.40;;;;;;;16.75;76.14;99868.84;5014345;28;20030;-63
2022/06/01 05:35:22;;;;;;;4.88;3.70;;;;;;;16.82;76.03;99848.72;5014600;28;20026;-62
2022/06/01 05:37:48;;;;;;;6.35;3.63;;;;;;;17.00;75.76;99855.66;5014489;28;20385;-62
2022/06/01 05:40:13;;;;;;;7.32;4.35;;;;;;;17.16;75.15;99865.47;5014447;28;20025;-62
2022/06/01 05:42:39;;;;;;;6.45;3.80;;;;;;;17.25;74.87;99863.06;5014032;28;20041;-62
2022/06/01 05:45:04;;;;;;;5.85;3.58;;;;;;;17.35;75.44;99864.22;5014487;28;20038;-62
2022/06/01 05:47:30;;;;;;;5.57;3.53;;;;;;;17.49;74.91;99866.09;5014248;28;20508;-62
2022/06/01 05:49:56;;;;;;;6.95;4.10;;;;;;;17.62;74.90;99867.91;5014036;28;20022;-62
2022/06/01 05:52:21;;;;;;;6.38;3.53;;;;;;;17.68;74.65;99872.91;5013608;28;20030;-62
2022/06/01 05:54:47;;;;;;;7.10;3.85;;;;;;;17.80;74.64;99888.28;5013828;28;20044;-62
2022/06/01 05:57:13;;;;;;;7.03;4.05;;;;;;;17.96;75.02;99882.75;5013911;28;20058;-62
2022/06/01 05:59:38;;;;;;;8.68;3.92;;;;;;;18.09;74.54;99879.16;5014099;28;20326;-62
2022/06/01 06:02:04;;;;;;;6.07;3.47;;;;;;;18.15;73.27;99859.91;5014090;28;20087;-62
2022/06/01 06:04:29;;;;;;;6.82;3.78;;;;;;;18.35;73.14;99878.31;5014055;28;20038;-62
2022/06/01 06:06:55;;;;;;;6.30;3.45;;;;;;;18.47;71.99;99873.97;5013939;28;20034;-62
2022/06/01 06:09:24;;;;;;;6.50;3.65;;;;;;;18.60;70.93;99879.41;5013918;28;20030;-62
2022/06/01 06:11:51;;;;;;;6.53;3.70;;;;;;;18.73;70.29;99891.09;5013557;28;20033;-62
2022/06/01 06:14:16;;;;;;;5.63;3.83;;;;;;;18.79;69.97;99883.44;5013850;28;20061;-62
2022/06/01 06:16:42;;;;;;;10.30;4.03;;;;;;;18.82;69.83;99890.44;5013814;28;20068;-62
2022/06/01 06:19:09;;;;;;;6.20;3.20;;;;;;;18.88;70.23;99879.25;5013821;28;20026;-63
2022/06/01 06:21:35;;;;;;;4.60;3.30;;;;;;;19.08;71.31;99892.22;5014013;28;20026;-62
2022/06/01 06:24:08;;;;;;;7.55;3.72;;;;;;;19.29;70.39;99896.16;5013479;28;20090;-63
2022/06/01 06:26:34;;;;;;;5.75;3.72;;;;;;;19.40;68.18;99901.66;5013255;28;20053;-63
2022/06/01 06:29:01;;;;;;;7.05;3.90;;;;;;;19.55;68.74;99900.59;5013478;28;20511;-63
2022/06/01 06:31:26;;;;;;;6.95;3.17;;;;;;;19.74;69.78;99898.28;5013575;28;20091;-64
2022/06/01 06:33:52;;;;;;;7.38;3.28;;;;;;;19.89;69.02;99891.78;5013525;28;20553;-64
2022/06/01 06:36:17;;;;;;;8.07;3.10;;;;;;;20.15;69.88;99892.59;5013590;28;20152;-64
2022/06/01 06:38:43;;;;;;;7.13;3.20;;;;;;;20.27;68.14;99906.09;5013259;28;20034;-63
2022/06/01 06:41:10;;;;;;;6.82;3.45;;;;;;;20.34;66.38;99899.25;5013509;28;20215;-64
2022/06/01 06:43:36;;;;;;;5.72;3.03;;;;;;;20.48;65.04;99899.06;5012502;28;20160;-63
2022/06/01 06:46:06;;;;;;;7.20;3.45;;;;;;;20.63;65.02;99892.53;5013321;28;20161;-63
2022/06/01 06:48:32;;;;;;;6.15;2.85;;;;;;;20.79;64.25;99898.47;5013315;28;20021;-60
2022/06/01 06:50:58;;;;;;;5.43;2.67;;;;;;;20.80;64.87;99896.66;5012932;28;20029;-60
2022/06/01 06:53:24;;;;;;;6.05;2.95;;;;;;;21.00;62.78;99904.13;5013161;28;20068;-61
2022/06/01 06:55:50;;;;;;;4.28;2.58;;;;;;;21.11;61.57;99897.88;5012998;28;20030;-61
2022/06/01 06:58:16;;;;;;;4.82;2.90;;;;;;;21.17;60.92;99900.13;5012854;28;20026;-61
2022/06/01 07:00:42;;;;;;;9.65;3.00;;;;;;;21.20;62.11;99906.16;5012659;28;20028;-61
2022/06/01 07:03:07;;;;;;;6.07;3.58;;;;;;;21.41;60.36;99909.03;5012672;28;20022;-63
2022/06/01 07:08:18;;;;;;;5.85;3.22;;;;;;;21.61;62.27;99897.50;5013137;28;20579;-62
2022/06/01 07:10:43;;;;;;;4.40;2.75;;;;;;;21.91;59.50;99914.88;5013080;28;20029;-62
2022/06/01 07:13:09;;;;;;;7.15;3.10;;;;;;;22.03;57.99;99913.88;5012769;28;20026;-62
2022/06/01 07:15:35;;;;;;;5.75;3.08;;;;;;;22.09;56.62;99907.97;5012471;28;20492;-63
2022/06/01 07:18:02;;;;;;;6.07;2.58;;;;;;;22.28;58.13;99912.75;5012740;28;20100;-63
2022/06/01 07:20:27;;;;;;;5.35;2.90;;;;;;;22.52;57.37;99916.13;5012176;28;20358;-63
2022/06/01 07:22:56;;;;;;;4.65;2.63;;;;;;;22.75;57.45;99916.97;5012004;28;20033;-63
2022/06/01 07:25:21;;;;;;;4.80;2.53;;;;;;;23.01;56.55;99907.50;5011904;28;20057;-63
2022/06/01 07:27:48;;;;;;;4.18;2.67;;;;;;;23.35;54.49;99914.47;5010972;28;20051;-63
2022/06/01 07:30:14;;;;;;;5.63;2.95;;;;;;;23.35;53.17;99907.22;5010970;28;20481;-63
2022/06/01 07:32:40;;;;;;;4.35;2.55;;;;;;;23.62;52.97;99898.50;5010910;28;20018;-63
2022/06/01 07:35:06;;;;;;;7.80;2.92;;;;;;;24.05;51.88;99901.00;5010738;28;20030;-63
2022/06/01 07:43:06;;;;;;;4.10;2.13;;;;;;;24.57;46.05;99917.03;5012219;28;20063;-63
2022/06/01 07:45:43;;;;;;;3.95;2.58;;;;;;;24.71;43.84;99913.94;5012114;28;20025;-63
2022/06/01 07:48:09;;;;;;;5.32;1.90;;;;;;;25.06;43.59;99905.22;5010799;28;20041;-63
2022/06/01 07:50:35;;;;;;;5.38;2.30;;;;;;;25.37;43.95;99907.63;5010432;28;20029;-63
2022/06/01 07:53:04;;;;;;;3.58;2.10;;;;;;;25.56;41.66;99915.78;5009915;28;20018;-63
2022/06/01 07:55:32;;;;;;;7.03;1.73;;;;;;;25.79;42.03;99906.25;5010149;28;20546;-63
2022/06/01 07:57:58;;;;;;;2.55;1.20;;;;;;;25.87;41.06;99914.53;4990885;28;20029;-63
2022/06/01 08:00:24;;;;;;;2.53;1.30;;;;;;;26.14;40.48;99918.34;5001108;28;20477;-64
2022/06/01 08:02:49;;;;;;;7.72;1.42;;;;;;;26.06;38.86;99918.22;5010569;28;20380;-63
2022/06/01 08:05:17;;;;;;;2.65;1.02;;;;;;;25.76;40.20;99911.13;5010166;28;20089;-63
2022/06/01 08:07:44;;;;;;;1.95;0.90;;;;;;;26.24;39.61;99916.41;5010141;28;20034;-63
2022/06/01 08:10:12;;;;;;;5.28;1.60;;;;;;;26.41;39.61;99921.06;5010736;28;20099;-63
2022/06/01 08:15:22;;;;;;;2.08;1.30;;;;;;;26.82;38.88;99920.56;5010040;28;20080;-63
2022/06/01 08:17:48;;;;;;;3.92;1.38;;;;;;;27.01;37.26;99928.56;5010190;28;20037;-63
2022/06/01 08:20:15;;;;;;;3.70;1.73;;;;;;;27.20;37.98;99928.41;5009910;28;20117;-64
2022/06/01 08:22:41;;;;;;;3.67;1.40;;;;;;;27.00;37.53;99937.78;4992507;28;20116;-63
2022/06/01 08:25:09;;;;;;;2.25;1.20;;;;;;;27.06;38.20;99931.69;5009788;28;20141;-63
2022/06/01 08:27:35;;;;;;;2.17;1.20;;;;;;;26.70;36.96;99935.41;5010603;28;20026;-63
2022/06/01 08:30:00;;;;;;;2.95;1.20;;;;;;;26.49;39.50;99932.91;5011365;28;20057;-63
2022/06/01 08:32:26;;;;;;;3.78;1.80;;;;;;;26.90;37.69;99926.09;5011728;28;20179;-63
2022/06/01 08:34:51;;;;;;;3.35;1.10;;;;;;;26.88;37.75;99928.97;5010603;28;20393;-64
2022/06/01 08:37:17;;;;;;;3.35;1.65;;;;;;;26.86;37.17;99935.59;5010812;28;20105;-63
2022/06/01 08:39:43;;;;;;;3.05;1.70;;;;;;;26.64;38.16;99936.84;5009782;28;20029;-63
2022/06/01 08:42:14;;;;;;;2.85;1.40;;;;;;;27.05;37.35;99941.75;5009394;28;20037;-63
2022/06/01 08:44:43;;;;;;;2.78;1.42;;;;;;;27.22;36.94;99948.22;5009225;28;20477;-63
2022/06/01 08:47:16;;;;;;;3.25;1.25;;;;;;;27.30;36.38;99942.03;5009160;28;20026;-63
2022/06/01 08:49:42;;;;;;;2.83;1.17;;;;;;;27.66;36.62;99940.94;5009545;28;20038;-63
2022/06/01 08:52:08;;;;;;;2.45;1.38;;;;;;;27.76;35.74;99942.53;5010218;28;20486;-63
2022/06/01 08:54:34;;;;;;;2.35;1.02;;;;;;;27.83;35.10;99937.28;5011385;28;20049;-63
2022/06/01 08:57:04;;;;;;;1.63;1.10;;;;;;;27.66;36.07;99941.78;5011195;28;20025;-63
2022/06/01 09:00:00;;;;;;;3.58;1.10;;;;;;;28.09;35.91;99933.56;5011322;28;20079;-63
2022/06/01 09:02:35;;;;;;;3.75;1.27;;;;;;;28.37;34.91;99929.59;5010950;28;20022;-63
2022/06/01 09:05:14;;;;;;;3.40;1.23;;;;;;;28.72;35.90;99923.06;5012138;28;20389;-64
2022/06/01 09:07:47;;;;;;;2.28;1.25;;;;;;;28.77;36.08;99922.53;5009940;28;20358;-64
2022/06/01 09:10:55;;;;;;;3.22;1.30;;;;;;;28.38;34.72;99939.50;5008622;28;20022;-64
2022/06/01 09:13:25;;;;;;;1.92;1.10;;;;;;;28.39;34.51;99946.69;4990017;28;20524;-64
2022/06/01 09:16:01;;;;;;;3.15;1.45;;;;;;;28.78;34.41;99940.72;4989878;28;20058;-64
2022/06/01 09:18:50;;;;;;;3.03;1.30;;;;;;;28.71;34.26;99936.91;5008246;28;20025;-64
2022/06/01 09:24:19;;;;;;;8.95;1.50;;;;;;;29.05;35.65;99945.88;5010842;28;20520;-64
2022/06/01 09:27:03;;;;;;;2.25;1.05;;;;;;;29.05;33.63;99943.16;5010736;28;20026;-64
2022/06/01 09:29:33;;;;;;;8.55;1.40;;;;;;;29.17;33.84;99941.84;5011096;28;20033;-64
2022/06/01 09:32:08;;;;;;;5.80;1.40;;;;;;;29.29;33.88;99944.06;5011207;28;20053;-64
2022/06/01 09:34:39;;;;;;;3.80;1.55;;;;;;;29.43;33.62;99945.25;5011095;28;20404;-64
2022/06/01 09:37:07;;;;;;;2.33;1.20;;;;;;;29.56;33.24;99931.91;5010668;28;20037;-64
2022/06/01 09:39:35;;;;;;;2.80;1.27;;;;;;;29.48;34.25;99934.66;5010972;28;20079;-64
2022/06/01 09:42:35;;;;;;;1.75;1.27;;;;;;;29.82;34.42;99932.56;5010700;28;20033;-64
2022/06/01 09:45:04;;;;;;;2.33;1.27;;;;;;;29.92;33.44;99946.13;4997825;28;20401;-64
2022/06/01 09:47:39;;;;;;;4.07;1.30;;;;;;;29.75;32.25;99936.19;5010120;28;20026;-64
2022/06/01 09:50:20;;;;;;;4.35;1.30;;;;;;;29.29;33.94;99932.25;4991791;28;20026;-64
2022/06/01 09:52:46;;;;;;;3.10;1.38;;;;;;;29.67;33.09;99922.50;4991560;28;20014;-64
2022/06/01 09:55:23;;;;;;;1.83;1.20;;;;;;;30.20;32.97;99929.03;5000461;28;20045;-64
2022/06/01 09:58:01;;;;;;;3.50;1.30;;;;;;;29.94;33.54;99931.19;5010078;28;20024;-64
2022/06/01 10:06:30;;;;;;;2.20;1.30;;;;;;;30.82;32.52;99928.13;5014086;28;20452;-64
2022/06/01 10:08:58;;;;;;;2.05;1.17;;;;;;;30.55;32.16;99936.84;5013890;28;20032;-64
2022/06/01 10:11:37;;;;;;;2.17;1.17;;;;;;;31.00;32.37;99935.22;5013977;28;20040;-64
2022/06/01 10:14:05;;;;;;;2.53;1.10;;;;;;;30.95;32.93;99934.91;5014017;28;20034;-64
2022/06/01 10:17:00;;;;;;;3.35;1.20;;;;;;;30.97;32.10;99935.59;5013587;28;20037;-64
2022/06/01 10:19:34;;;;;;;2.15;1.20;;;;;;;30.84;32.44;99938.94;5013663;28;20025;-64
2022/06/01 10:22:27;;;;;;;3.38;1.30;;;;;;;31.09;32.37;99934.97;5013724;28;20168;-64
2022/06/01 10:25:04;;;;;;;2.25;1.27;;;;;;;31.69;31.69;99922.16;5013603;28;20057;-64
2022/06/01 10:27:52;;;;;;;1.77;1.40;;;;;;;31.06;32.74;99923.50;5013304;28;20449;-64
2022/06/01 10:30:32;;;;;;;2.13;1.10;;;;;;;31.25;33.15;99928.53;4996515;28;20028;-64
2022/06/01 10:33:10;;;;;;;4.07;1.10;;;;;;;31.29;31.64;99929.84;5013524;28;20500;-64
2022/06/01 10:35:50;;;;;;;2.70;1.30;;;;;;;30.97;32.27;99924.59;5011846;28;20033;-64
2022/06/01 10:38:19;;;;;;;2.45;1.25;;;;;;;30.79;31.33;99931.22;5011335;28;20473;-64
2022/06/01 10:41:16;;;;;;;3.63;1.30;;;;;;;30.46;33.27;99926.06;5011594;28;20029;-64
2022/06/01 10:44:16;;;;;;;2.92;1.50;;;;;;;30.39;33.40;99931.41;4984309;28;20593;-64
2022/06/01 10:47:03;;;;;;;2.40;1.50;;;;;;;30.76;32.92;99922.47;5008435;28;20041;-64
2022/06/01 10:50:02;;;;;;;1.65;0.98;;;;;;;30.56;33.75;99927.53;4994827;28;20389;-65
2022/06/01 10:53:13;;;;;;;2.55;1.20;;;;;;;29.85;33.06;99920.41;5013040;28;20026;-64
2022/06/01 10:55:42;;;;;;;2.97;1.27;;;;;;;29.44;33.00;99925.06;5012952;28;20124;-64
2022/06/01 10:58:14;;;;;;;3.70;1.23;;;;;;;29.52;32.73;99919.56;5012179;28;20490;-64
2022/06/01 11:00:49;;;;;;;1.98;1.08;;;;;;;29.91;33.53;99915.09;5011825;28;20520;-64
2022/06/01 11:03:31;;;;;;;3.08;1.20;;;;;;;30.45;32.76;99925.22;4993591;28;20092;-65
2022/06/01 11:06:27;;;;;;;1.88;1.10;;;;;;;30.56;31.94;99919.31;4995401;28;20474;-65
2022/06/01 11:09:06;;;;;;;2.15;0.95;;;;;;;29.79;32.70;99916.47;4989148;28;20467;-64
2022/06/01 11:12:29;;;;;;;3.58;1.00;;;;;;;29.36;33.65;99917.69;5007878;28;20105;-64
2022/06/01 11:15:26;;;;;;;2.25;1.00;;;;;;;29.38;34.28;99912.91;4948703;29;20039;-63
2022/06/01 11:18:02;;;;;;;2.40;1.27;;;;;;;29.84;34.12;99914.06;5012670;28;20055;-64
2022/06/01 11:20:52;;;;;;;3.28;1.10;;;;;;;30.65;32.52;99918.25;5012322;28;20021;-65
2022/06/01 11:23:28;;;;;;;2.45;1.17;;;;;;;30.59;31.97;99910.69;5012502;28;20048;-64
2022/06/01 11:26:07;;;;;;;1.98;1.15;;;;;;;31.10;32.12;99906.47;5012280;28;20405;-64
2022/06/01 11:28:43;;;;;;;6.38;1.30;;;;;;;31.54;32.08;99903.88;5012449;28;20017;-64
2022/06/01 11:31:20;;;;;;;2.10;1.05;;;;;;;31.48;31.06;99890.91;5012585;28;20116;-64
2022/06/01 11:34:02;;;;;;;1.30;0.70;;;;;;;31.75;30.15;99890.25;5012064;28;20033;-64
2022/06/01 11:36:44;;;;;;;2.47;0.80;;;;;;;32.01;30.33;99890.72;5012584;28;20080;-65
2022/06/01 11:39:24;;;;;;;4.45;1.10;;;;;;;32.37;30.90;99888.03;5012349;28;20108;-64
2022/06/01 11:42:26;;;;;;;1.90;0.82;;;;;;;32.41;29.07;99890.22;5012372;28;20025;-65
2022/06/01 11:45:12;;;;;;;3.60;1.23;;;;;;;31.87;29.76;99897.06;5012337;28;20034;-65
2022/06/01 11:47:49;;;;;;;4.25;1.02;;;;;;;31.96;30.30;99884.94;5012464;28;20030;-64
2022/06/01 11:50:32;;;;;;;2.38;1.02;;;;;;;31.72;29.31;99893.41;5012244;28;20030;-64
2022/06/01 11:52:58;;;;;;;3.17;0.85;;;;;;;31.42;30.44;99897.97;5012070;28;20061;-64
2022/06/01 11:55:36;;;;;;;2.08;1.00;;;;;;;30.63;30.93;99895.59;5011546;28;20442;-64
2022/06/01 11:58:13;;;;;;;3.83;1.05;;;;;;;29.82;31.47;99891.44;5011904;28;20030;-63
2022/06/01 12:00:57;;;;;;;1.45;0.77;;;;;;;29.15;34.05;99895.44;5011887;28;20109;-63
2022/06/01 12:03:24;;;;;;;1.58;0.85;;;;;;;29.08;33.16;99885.31;5011283;28;20430;-63
2022/06/01 12:06:04;;;;;;;4.65;1.45;;;;;;;29.33;33.68;99887.03;5012007;28;20030;-63
2022/06/01 12:08:43;;;;;;;2.45;1.00;;;;;;;30.09;32.34;99885.53;5011779;28;20033;-63
2022/06/01 12:11:43;;;;;;;1.80;0.90;;;;;;;30.99;30.44;99878.56;5011800;28;20053;-64
2022/06/01 12:14:39;;;;;;;3.50;0.85;;;;;;;30.92;29.89;99884.78;5011701;28;20034;-64
2022/06/01 12:17:29;;;;;;;2.03;0.90;;;;;;;30.96;31.01;99876.16;5011634;28;20021;-64
2022/06/01 12:20:18;;;;;;;3.50;1.75;;;;;;;31.35;30.34;99864.00;5002687;28;20041;-64